Time;durP1;ratioP1;P1;durP2;ratioP2;P2;SDS_P1;SDS_P2;PMS_P1;PMS_P2;Temp;Humidity;BMP_temperature;BMP_pressure;BME280_temperature;BME280_humidity;BME280_pressure;Samples;Min_cycle;Max_cycle;Signal;HPM_P1;HPM_P2
2023/04/20 09:15:52;;;;;;;7.70;2.10;;;9.70;99.90;;;;;;4856464;23;20245;-76
2023/04/20 09:18:20;;;;;;;5.03;2.60;;;10.00;99.90;;;;;;4990151;28;20701;-76
2023/04/20 09:20:47;;;;;;;4.07;1.93;;;10.10;99.90;;;;;;4988195;28;20221;-77
2023/04/20 09:23:15;;;;;;;3.60;2.07;;;9.90;99.90;;;;;;4989228;28;20280;-76
2023/04/20 09:25:44;;;;;;;4.80;1.70;;;10.00;99.90;;;;;;4993181;28;20237;-73
2023/04/20 09:28:12;;;;;;;3.43;2.00;;;10.30;99.90;;;;;;4993578;28;20300;-72
2023/04/20 09:30:40;;;;;;;2.77;1.67;;;10.70;99.90;;;;;;4976608;28;20619;-72
2023/04/20 09:33:11;;;;;;;3.53;1.77;;;11.10;99.90;;;;;;4976547;28;20226;-73
2023/04/20 09:35:39;;;;;;;3.30;2.00;;;11.30;99.90;;;;;;4988236;28;20206;-73
2023/04/20 09:38:06;;;;;;;2.87;1.90;;;11.40;99.90;;;;;;4994317;28;20289;-73
2023/04/20 09:40:34;;;;;;;2.27;1.80;;;11.10;99.90;;;;;;4977024;28;20696;-72
2023/04/20 09:43:07;;;;;;;3.10;1.80;;;11.30;99.90;;;;;;4976481;28;20392;-71
2023/04/20 09:45:34;;;;;;;3.17;2.07;;;11.60;99.90;;;;;;4976718;28;20218;-72
2023/04/20 09:48:04;;;;;;;4.47;1.80;;;11.70;99.90;;;;;;4976021;28;20249;-72
2023/04/20 09:50:35;;;;;;;2.90;1.80;;;11.80;99.90;;;;;;4976076;28;20215;-73
2023/04/20 09:53:03;;;;;;;5.33;2.07;;;11.50;99.90;;;;;;4976282;28;20636;-72
2023/04/20 09:55:31;;;;;;;2.53;1.77;;;11.70;99.90;;;;;;4977388;28;20231;-72
2023/04/20 09:57:58;;;;;;;3.47;2.00;;;12.00;99.90;;;;;;4977574;28;20302;-72
2023/04/20 10:00:25;;;;;;;2.70;1.73;;;12.00;99.90;;;;;;4977374;28;20215;-72
2023/04/20 10:02:52;;;;;;;2.40;1.60;;;11.40;99.90;;;;;;4977089;28;20259;-72
2023/04/20 10:05:21;;;;;;;4.00;1.63;;;11.20;99.90;;;;;;4977508;28;20357;-75
2023/04/20 10:07:59;;;;;;;2.43;1.80;;;10.90;99.90;;;;;;4977283;28;20217;-72
2023/04/20 10:10:26;;;;;;;5.50;1.60;;;10.60;99.90;;;;;;4977190;28;20211;-72
2023/04/20 10:12:55;;;;;;;3.77;1.77;;;10.50;99.90;;;;;;4976894;28;20719;-74
2023/04/20 10:15:22;;;;;;;4.00;1.83;;;10.20;99.90;;;;;;4977228;28;20322;-74
2023/04/20 10:17:50;;;;;;;2.93;1.83;;;10.20;99.90;;;;;;4977238;28;20215;-73
2023/04/20 10:20:21;;;;;;;2.90;1.70;;;10.30;99.90;;;;;;4977098;28;20246;-73
2023/04/20 10:22:51;;;;;;;2.90;1.77;;;10.40;99.90;;;;;;4976787;28;20259;-73
2023/04/20 10:25:20;;;;;;;2.63;1.80;;;10.30;99.90;;;;;;4976779;28;20294;-75
2023/04/20 10:27:55;;;;;;;4.27;1.50;;;10.10;99.90;;;;;;4976865;28;20242;-74
2023/04/20 10:30:23;;;;;;;3.30;1.60;;;9.90;99.90;;;;;;4976970;28;20215;-75
2023/04/20 10:33:01;;;;;;;2.77;1.77;;;10.10;99.90;;;;;;4976699;28;20258;-75
2023/04/20 10:35:29;;;;;;;5.17;1.73;;;10.10;99.90;;;;;;4976772;28;20768;-75
2023/04/20 10:37:57;;;;;;;3.97;1.50;;;10.10;99.90;;;;;;4975475;28;20294;-75
2023/04/20 10:40:26;;;;;;;3.77;1.70;;;9.90;99.90;;;;;;4976692;28;20290;-74
2023/04/20 10:42:53;;;;;;;4.23;1.77;;;9.70;99.90;;;;;;4976815;28;20301;-74
2023/04/20 10:45:20;;;;;;;5.37;2.00;;;9.60;99.90;;;;;;4976859;28;20637;-74
2023/04/20 10:47:47;;;;;;;2.63;1.83;;;9.60;99.90;;;;;;4976305;28;20671;-75
2023/04/20 10:50:16;;;;;;;6.83;2.00;;;9.60;99.90;;;;;;4976712;28;20239;-74
2023/04/20 10:52:44;;;;;;;3.23;1.70;;;9.70;99.90;;;;;;4976449;28;20258;-74
2023/04/20 10:55:23;;;;;;;3.53;1.90;;;9.70;99.90;;;;;;4976353;28;20330;-74
2023/04/20 10:57:50;;;;;;;5.87;1.80;;;9.70;99.90;;;;;;4976536;28;20265;-74
2023/04/20 11:00:19;;;;;;;3.57;1.80;;;9.70;99.90;;;;;;4976357;28;20299;-74
2023/04/20 11:02:48;;;;;;;2.93;1.83;;;9.70;99.90;;;;;;4976200;28;20266;-74
2023/04/20 11:05:16;;;;;;;2.43;1.67;;;9.80;99.90;;;;;;4976202;28;20664;-74
2023/04/20 11:07:50;;;;;;;3.73;1.63;;;9.90;99.90;;;;;;4976472;28;20647;-74
2023/04/20 11:10:17;;;;;;;2.23;1.70;;;10.10;99.90;;;;;;4976093;28;20684;-74
2023/04/20 11:12:45;;;;;;;2.17;1.63;;;10.50;99.90;;;;;;4976088;28;20310;-74
2023/04/20 11:15:12;;;;;;;3.03;1.93;;;10.90;99.90;;;;;;4975901;28;20274;-74
2023/04/20 11:17:40;;;;;;;3.10;2.10;;;11.00;99.90;;;;;;4975987;28;20294;-74
2023/04/20 11:20:09;;;;;;;4.63;2.07;;;10.90;99.90;;;;;;4975994;28;20294;-74
2023/04/20 11:22:37;;;;;;;3.33;1.83;;;10.70;99.90;;;;;;4976039;28;20238;-74
2023/04/20 11:25:05;;;;;;;2.97;1.97;;;10.60;99.90;;;;;;4975922;28;20211;-74
2023/04/20 11:27:33;;;;;;;7.13;2.20;;;10.50;99.90;;;;;;4975814;28;20211;-74
2023/04/20 11:30:04;;;;;;;3.33;2.13;;;10.60;99.90;;;;;;4975679;28;20211;-73
2023/04/20 11:32:32;;;;;;;3.17;1.60;;;10.90;99.90;;;;;;4975313;28;20265;-74
2023/04/20 11:35:00;;;;;;;3.67;2.20;;;10.70;99.90;;;;;;4975502;28;20246;-74
2023/04/20 11:37:27;;;;;;;2.97;1.90;;;10.50;99.90;;;;;;4975781;28;20238;-74
2023/04/20 11:40:03;;;;;;;2.40;1.97;;;10.40;99.90;;;;;;4975730;28;20211;-74
2023/04/20 11:42:30;;;;;;;3.40;1.87;;;10.80;99.90;;;;;;4975396;28;20313;-74
2023/04/20 11:44:57;;;;;;;3.13;2.03;;;10.90;99.90;;;;;;4975421;28;20207;-74
2023/04/20 11:47:26;;;;;;;2.73;1.77;;;11.20;99.90;;;;;;4975356;28;20270;-74
2023/04/20 11:49:53;;;;;;;3.97;2.00;;;11.50;99.90;;;;;;4975394;28;20242;-75
2023/04/20 11:52:20;;;;;;;3.93;2.00;;;11.90;99.90;;;;;;4975554;28;20281;-74
2023/04/20 11:54:47;;;;;;;3.30;2.00;;;11.80;99.90;;;;;;4975428;28;20226;-73
2023/04/20 11:57:15;;;;;;;3.63;2.07;;;11.60;99.90;;;;;;4975258;28;20207;-74
2023/04/20 11:59:46;;;;;;;3.33;2.10;;;11.50;99.90;;;;;;4975103;28;20298;-74
2023/04/20 12:02:13;;;;;;;4.77;2.00;;;11.20;99.90;;;;;;4975058;28;20286;-74
2023/04/20 12:04:42;;;;;;;3.07;2.00;;;11.20;99.90;;;;;;4975153;28;20293;-74
2023/04/20 12:07:09;;;;;;;4.57;2.23;;;11.30;99.90;;;;;;4975186;28;20294;-74
2023/04/20 12:09:37;;;;;;;4.23;2.23;;;11.10;99.90;;;;;;4975083;28;20261;-74
2023/04/20 12:12:04;;;;;;;2.87;1.97;;;11.00;99.90;;;;;;4974831;28;20231;-74
2023/04/20 12:14:32;;;;;;;3.60;2.10;;;10.80;99.90;;;;;;4974625;28;20699;-74
2023/04/20 12:16:59;;;;;;;3.60;2.23;;;10.60;99.90;;;;;;4974655;28;20213;-74
2023/04/20 12:19:26;;;;;;;3.90;2.20;;;10.90;99.90;;;;;;4974744;28;20211;-74
2023/04/20 12:21:55;;;;;;;4.07;2.27;;;11.00;99.90;;;;;;4974704;28;20294;-75
2023/04/20 12:24:22;;;;;;;2.93;2.00;;;11.10;99.90;;;;;;4974729;28;20247;-74
2023/04/20 12:26:49;;;;;;;4.40;2.20;;;11.00;99.90;;;;;;4974726;28;20299;-74
2023/04/20 12:29:16;;;;;;;2.93;2.13;;;10.90;99.90;;;;;;4974987;28;20262;-75
2023/04/20 12:31:43;;;;;;;3.83;2.53;;;10.50;99.90;;;;;;4974105;28;20258;-75
2023/04/20 12:34:09;;;;;;;3.87;2.50;;;10.20;99.90;;;;;;4973934;28;20287;-75
2023/04/20 12:36:36;;;;;;;2.97;2.00;;;10.20;99.90;;;;;;4973553;28;20294;-75
2023/04/20 12:39:05;;;;;;;3.30;2.10;;;10.10;99.90;;;;;;4973334;28;20246;-75
2023/04/20 12:41:33;;;;;;;2.27;1.87;;;10.20;99.90;;;;;;4973503;28;20203;-74
2023/04/20 12:44:00;;;;;;;3.63;2.10;;;10.40;99.90;;;;;;4973517;28;20229;-74
2023/04/20 12:46:26;;;;;;;3.80;2.37;;;10.80;99.90;;;;;;4973431;28;20297;-74
2023/04/20 12:48:53;;;;;;;3.47;2.40;;;11.00;99.90;;;;;;4973941;28;20241;-75
2023/04/20 12:51:20;;;;;;;3.97;2.33;;;11.10;99.90;;;;;;4973749;28;20249;-74
2023/04/20 12:53:47;;;;;;;2.43;1.87;;;11.30;99.90;;;;;;4973867;28;20314;-75
2023/04/20 12:56:15;;;;;;;2.73;2.20;;;11.60;99.90;;;;;;4974114;28;20242;-75
2023/04/20 12:58:44;;;;;;;4.17;2.30;;;11.70;99.90;;;;;;4974223;28;20238;-75
2023/04/20 13:01:11;;;;;;;4.40;2.20;;;11.60;99.90;;;;;;4973235;28;20251;-73
2023/04/20 13:03:38;;;;;;;2.83;2.20;;;11.60;99.90;;;;;;4973904;28;20269;-74
2023/04/20 13:06:05;;;;;;;6.13;2.67;;;11.40;99.90;;;;;;4973831;28;20261;-75
2023/04/20 13:08:32;;;;;;;5.00;2.70;;;11.30;99.90;;;;;;4973699;28;20222;-74
2023/04/20 13:10:59;;;;;;;5.37;2.20;;;11.10;99.90;;;;;;4974220;28;20236;-75
2023/04/20 13:13:27;;;;;;;3.83;2.40;;;10.60;99.90;;;;;;4974004;28;20322;-75
2023/04/20 13:15:54;;;;;;;5.77;2.60;;;9.80;99.90;;;;;;4973878;28;20322;-74
2023/04/20 13:18:23;;;;;;;5.13;2.90;;;9.20;99.90;;;;;;4973614;28;20211;-75
2023/04/20 13:20:50;;;;;;;4.60;3.30;;;9.00;99.90;;;;;;4973832;28;20326;-74
2023/04/20 13:23:17;;;;;;;3.87;2.63;;;8.80;99.90;;;;;;4973957;28;20782;-74
2023/04/20 13:25:44;;;;;;;6.90;3.17;;;8.80;99.90;;;;;;4973898;28;20214;-74
2023/04/20 13:28:11;;;;;;;4.70;2.67;;;8.70;99.90;;;;;;4974092;28;20758;-75
2023/04/20 13:30:39;;;;;;;4.67;3.07;;;8.40;99.90;;;;;;4973988;28;20218;-75
2023/04/20 13:33:06;;;;;;;3.90;2.73;;;8.00;99.90;;;;;;4973590;28;20265;-75
2023/04/20 13:35:33;;;;;;;5.30;3.63;;;7.80;99.90;;;;;;4973729;28;20712;-76
2023/04/20 13:38:00;;;;;;;5.73;3.67;;;7.40;99.90;;;;;;4973821;28;20303;-75
2023/04/20 13:40:28;;;;;;;11.23;4.53;;;7.10;99.90;;;;;;4974133;28;20238;-75
2023/04/20 13:42:56;;;;;;;8.50;4.70;;;7.00;99.90;;;;;;4973561;28;20227;-75
2023/04/20 13:45:23;;;;;;;5.67;3.60;;;7.10;99.90;;;;;;4973737;28;20219;-75
2023/04/20 13:47:51;;;;;;;5.93;3.60;;;7.20;99.90;;;;;;4973383;28;20245;-76
2023/04/20 13:50:18;;;;;;;6.47;4.10;;;7.50;99.90;;;;;;4973869;28;20242;-75
2023/04/20 13:52:45;;;;;;;7.23;3.53;;;7.80;99.90;;;;;;4973967;28;20314;-75
2023/04/20 13:55:12;;;;;;;7.13;3.70;;;7.90;99.90;;;;;;4973887;28;20318;-75
2023/04/20 13:57:39;;;;;;;5.30;3.87;;;7.90;99.90;;;;;;4973673;28;20246;-74
2023/04/20 14:00:07;;;;;;;6.13;3.73;;;7.90;99.90;;;;;;4973716;28;20251;-75
2023/04/20 14:02:34;;;;;;;6.00;3.80;;;8.00;99.90;;;;;;4973304;28;20310;-74
2023/04/20 14:05:05;;;;;;;7.57;3.93;;;8.20;99.90;;;;;;4973572;28;20215;-75
2023/04/20 14:07:32;;;;;;;6.10;4.30;;;8.40;99.90;;;;;;4973269;28;20219;-76
2023/04/20 14:09:59;;;;;;;6.27;3.30;;;8.70;99.90;;;;;;4973385;28;20719;-76
2023/04/20 14:12:27;;;;;;;6.50;3.83;;;8.80;99.90;;;;;;4975322;28;20286;-74
2023/04/20 14:14:56;;;;;;;6.53;4.20;;;9.00;99.90;;;;;;4976538;28;21911;-75
2023/04/20 14:17:23;;;;;;;6.17;4.00;;;9.20;99.90;;;;;;4976956;28;20695;-75
2023/04/20 14:19:50;;;;;;;6.87;4.07;;;9.50;99.90;;;;;;4976892;28;20294;-76
2023/04/20 14:22:18;;;;;;;6.57;4.17;;;9.90;99.90;;;;;;4976824;28;20775;-76
2023/04/20 14:24:46;;;;;;;7.90;4.70;;;10.00;99.90;;;;;;4976976;28;20254;-75
2023/04/20 14:27:13;;;;;;;5.90;3.60;;;9.90;99.90;;;;;;4976680;28;20294;-76
2023/04/20 14:29:40;;;;;;;6.27;3.20;;;9.70;99.90;;;;;;4976544;28;20294;-75
2023/04/20 14:32:07;;;;;;;5.03;3.20;;;9.70;99.90;;;;;;4974290;28;20259;-73
2023/04/20 14:34:33;;;;;;;5.73;4.13;;;9.90;99.90;;;;;;4975582;28;20295;-75
2023/04/20 14:37:00;;;;;;;5.60;3.20;;;9.90;99.90;;;;;;4976452;28;20322;-74
2023/04/20 14:39:29;;;;;;;4.50;3.20;;;9.90;99.90;;;;;;4990116;28;20241;-74
2023/04/20 14:41:56;;;;;;;5.33;3.07;;;9.80;99.90;;;;;;4988602;28;20291;-73
2023/04/20 14:44:23;;;;;;;7.67;3.40;;;9.70;99.90;;;;;;4956594;28;20239;-75
2023/04/20 14:46:50;;;;;;;4.57;2.93;;;9.60;99.90;;;;;;4956976;28;20298;-74
2023/04/20 14:49:16;;;;;;;4.63;3.00;;;9.40;99.90;;;;;;4957047;29;20306;-74
2023/04/20 14:51:43;;;;;;;4.80;3.00;;;9.30;99.90;;;;;;4982298;28;20302;-76
2023/04/20 14:54:10;;;;;;;3.50;2.50;;;9.10;99.90;;;;;;4956936;28;20706;-75
2023/04/20 14:56:39;;;;;;;4.30;2.67;;;9.10;99.90;;;;;;4956557;28;20243;-75
2023/04/20 14:59:06;;;;;;;3.43;2.40;;;9.20;99.90;;;;;;4957063;28;20613;-74
2023/04/20 15:01:33;;;;;;;3.40;2.47;;;9.40;99.90;;;;;;4956520;28;20236;-74
2023/04/20 15:04:00;;;;;;;3.53;2.27;;;9.60;99.90;;;;;;4956194;28;20288;-74
2023/04/20 15:06:27;;;;;;;3.30;2.20;;;9.50;99.90;;;;;;4956676;29;20299;-73
2023/04/20 15:08:55;;;;;;;3.07;1.77;;;9.50;99.90;;;;;;4956436;28;20246;-74
2023/04/20 15:11:22;;;;;;;3.50;2.20;;;9.50;99.90;;;;;;4956393;28;20208;-74
2023/04/20 15:13:51;;;;;;;3.60;2.13;;;9.60;99.90;;;;;;4956553;28;20319;-73
2023/04/20 15:16:18;;;;;;;2.83;1.90;;;9.60;99.90;;;;;;4956131;28;20239;-74
2023/04/20 15:18:45;;;;;;;2.80;2.00;;;9.90;99.90;;;;;;4956484;28;20315;-74
2023/04/20 15:21:12;;;;;;;1.73;1.20;;;10.00;99.90;;;;;;4956206;29;20580;-73
2023/04/20 15:23:39;;;;;;;2.33;1.43;;;10.20;99.90;;;;;;4954939;28;20256;-73
2023/04/20 15:26:08;;;;;;;2.30;1.47;;;10.30;99.90;;;;;;4956189;28;20225;-73
2023/04/20 15:28:35;;;;;;;2.13;1.33;;;10.50;99.90;;;;;;4991003;28;20663;-73
2023/04/20 15:31:03;;;;;;;3.40;1.40;;;10.80;99.90;;;;;;4972688;28;20299;-72
2023/04/20 15:33:30;;;;;;;2.80;1.53;;;11.10;99.90;;;;;;4955658;28;20262;-73
2023/04/20 15:35:57;;;;;;;1.80;1.40;;;11.20;99.90;;;;;;4955648;28;20327;-73
2023/04/20 15:38:24;;;;;;;2.83;1.80;;;11.20;99.90;;;;;;4956047;28;20303;-72
2023/04/20 15:40:52;;;;;;;2.17;1.60;;;10.70;99.90;;;;;;4956295;28;20307;-73
2023/04/20 15:43:19;;;;;;;1.80;1.40;;;10.50;99.90;;;;;;4955804;28;20238;-73
2023/04/20 15:45:46;;;;;;;1.33;1.17;;;10.40;99.90;;;;;;4955578;28;20239;-73
2023/04/20 15:48:14;;;;;;;2.50;1.73;;;10.30;99.90;;;;;;4955763;28;20735;-72
2023/04/20 15:50:41;;;;;;;2.20;1.60;;;10.40;99.90;;;;;;4955782;29;20236;-74
2023/04/20 15:53:08;;;;;;;2.00;1.70;;;10.30;99.90;;;;;;4955190;28;20274;-74
2023/04/20 15:55:38;;;;;;;2.77;1.73;;;10.40;99.90;;;;;;4955130;28;20760;-75
2023/04/20 15:58:05;;;;;;;1.97;1.60;;;10.60;99.90;;;;;;4955340;28;20254;-74
2023/04/20 16:00:32;;;;;;;2.50;1.70;;;10.50;99.90;;;;;;4955482;28;20294;-73
2023/04/20 16:03:00;;;;;;;2.87;1.50;;;10.60;99.90;;;;;;4954857;28;20307;-73
2023/04/20 16:05:28;;;;;;;2.43;1.70;;;10.60;99.90;;;;;;4955650;28;20212;-74
2023/04/20 16:07:55;;;;;;;1.97;1.67;;;10.60;99.90;;;;;;4955891;28;20302;-73
2023/04/20 16:10:22;;;;;;;2.40;1.67;;;10.40;99.90;;;;;;4955732;28;20211;-73
2023/04/20 16:12:50;;;;;;;2.50;1.63;;;10.30;99.90;;;;;;4955219;28;20239;-73
2023/04/20 16:15:17;;;;;;;2.57;1.80;;;10.30;99.90;;;;;;4955257;28;20218;-73
2023/04/20 16:17:44;;;;;;;3.43;1.90;;;10.20;99.90;;;;;;4955527;28;20307;-72
2023/04/20 16:20:11;;;;;;;2.07;1.63;;;10.40;99.90;;;;;;4955416;28;20299;-73
2023/04/20 16:22:40;;;;;;;3.03;1.67;;;10.50;99.90;;;;;;4955427;28;20315;-73
2023/04/20 16:25:11;;;;;;;2.60;1.53;;;10.60;99.90;;;;;;4955418;29;20302;-73
2023/04/20 16:27:38;;;;;;;1.80;1.30;;;10.80;99.90;;;;;;4955311;28;20704;-72
2023/04/20 16:30:05;;;;;;;2.47;1.53;;;10.70;99.90;;;;;;4955268;28;20550;-72
2023/04/20 16:32:33;;;;;;;1.63;1.33;;;10.60;99.90;;;;;;4954853;28;20726;-72
2023/04/20 16:35:00;;;;;;;2.17;1.77;;;10.40;99.90;;;;;;4954431;28;20299;-72
2023/04/20 16:37:29;;;;;;;1.80;1.43;;;10.30;99.90;;;;;;4954563;28;20704;-72
2023/04/20 16:39:57;;;;;;;3.43;1.70;;;10.30;99.90;;;;;;4954911;28;20208;-73
2023/04/20 16:42:24;;;;;;;2.10;1.60;;;10.10;99.90;;;;;;4954945;29;20661;-72
2023/04/20 16:44:51;;;;;;;1.93;1.40;;;10.00;99.90;;;;;;4954894;28;20290;-72
2023/04/20 16:47:18;;;;;;;2.30;1.70;;;9.90;99.90;;;;;;4954838;28;20302;-72
2023/04/20 16:49:44;;;;;;;2.13;1.50;;;10.00;99.90;;;;;;4954677;28;20732;-73
2023/04/20 16:52:11;;;;;;;3.67;1.90;;;10.10;99.90;;;;;;4954825;28;20271;-72
2023/04/20 16:54:40;;;;;;;2.40;1.70;;;10.20;99.90;;;;;;4954683;28;20216;-73
2023/04/20 16:57:08;;;;;;;3.60;1.70;;;10.40;99.90;;;;;;4954270;28;20603;-72
2023/04/20 16:59:35;;;;;;;2.27;1.67;;;10.40;99.90;;;;;;4954336;28;20550;-73
2023/04/20 17:02:02;;;;;;;3.00;1.83;;;10.40;99.90;;;;;;4954343;28;20259;-73
2023/04/20 17:04:30;;;;;;;2.63;1.73;;;10.30;99.90;;;;;;4954682;28;20295;-72
2023/04/20 17:06:56;;;;;;;3.30;2.30;;;10.30;99.90;;;;;;4954445;29;20645;-73
2023/04/20 17:09:23;;;;;;;3.27;2.47;;;10.20;99.90;;;;;;4954645;28;20640;-74
2023/04/20 17:11:51;;;;;;;2.93;2.17;;;10.50;99.90;;;;;;4953084;28;20299;-73
2023/04/20 17:14:19;;;;;;;3.73;2.90;;;10.50;99.90;;;;;;4970774;28;20210;-73
2023/04/20 17:16:46;;;;;;;4.17;2.70;;;10.60;99.90;;;;;;4973428;28;20273;-73
2023/04/20 17:19:13;;;;;;;2.37;1.80;;;10.70;99.90;;;;;;4985280;28;20234;-73
2023/04/20 17:21:40;;;;;;;2.20;1.90;;;10.70;99.90;;;;;;4990576;28;20245;-73
2023/04/20 17:24:07;;;;;;;2.67;1.83;;;10.80;99.90;;;;;;4954193;28;20219;-72
2023/04/20 17:26:34;;;;;;;2.83;2.00;;;10.80;99.90;;;;;;4954277;29;20299;-72
2023/04/20 17:29:01;;;;;;;2.67;1.90;;;11.10;99.90;;;;;;4954712;29;20287;-72
2023/04/20 17:31:30;;;;;;;3.17;2.10;;;11.20;99.90;;;;;;4954607;29;20311;-72
2023/04/20 17:33:56;;;;;;;2.47;2.10;;;11.20;99.90;;;;;;4954548;29;20259;-71
2023/04/20 17:36:23;;;;;;;2.27;2.00;;;11.30;99.90;;;;;;4954532;29;20330;-72
2023/04/20 17:38:50;;;;;;;2.90;2.10;;;11.40;99.90;;;;;;4954309;29;20251;-72
2023/04/20 17:41:17;;;;;;;3.23;2.20;;;11.40;99.90;;;;;;4954491;28;20688;-71
2023/04/20 17:43:44;;;;;;;3.47;2.47;;;11.50;99.90;;;;;;4954553;28;20264;-72
2023/04/20 17:46:11;;;;;;;3.20;2.03;;;11.40;99.90;;;;;;4954143;28;20740;-73
2023/04/20 17:48:39;;;;;;;3.57;2.10;;;11.40;99.90;;;;;;4958443;29;20240;-72
2023/04/20 17:51:06;;;;;;;4.50;2.03;;;11.50;99.90;;;;;;4958301;28;20291;-72
2023/04/20 17:53:33;;;;;;;3.47;1.90;;;11.70;99.90;;;;;;4957968;28;20318;-72
2023/04/20 17:56:00;;;;;;;3.93;2.40;;;11.60;99.90;;;;;;4957675;28;20633;-73
2023/04/20 17:58:27;;;;;;;2.40;2.00;;;11.40;99.90;;;;;;4957990;28;20267;-72
2023/04/20 18:00:54;;;;;;;2.83;2.10;;;11.20;99.90;;;;;;4957986;28;20259;-72
2023/04/20 18:03:21;;;;;;;2.50;2.07;;;11.10;99.90;;;;;;4957603;29;20228;-74
2023/04/20 18:05:49;;;;;;;2.67;2.23;;;11.10;99.90;;;;;;4957839;29;20298;-72
2023/04/20 18:08:17;;;;;;;5.30;2.13;;;11.10;99.90;;;;;;4957506;28;20215;-72
2023/04/20 18:10:44;;;;;;;3.03;2.27;;;11.20;99.90;;;;;;4957823;28;20200;-72
2023/04/20 18:13:11;;;;;;;3.27;2.13;;;11.20;99.90;;;;;;4957328;28;20788;-72
2023/04/20 18:15:37;;;;;;;2.93;2.13;;;11.10;99.90;;;;;;4957333;28;20304;-72
2023/04/20 18:18:04;;;;;;;3.67;2.50;;;11.10;99.90;;;;;;4957172;28;20326;-72
2023/04/20 18:20:31;;;;;;;3.57;2.40;;;11.00;99.90;;;;;;4957440;28;20743;-72
2023/04/20 18:23:00;;;;;;;4.47;2.40;;;11.00;99.90;;;;;;4967358;28;20231;-73
2023/04/20 18:25:27;;;;;;;2.87;2.10;;;11.00;99.90;;;;;;4976478;28;20679;-77
2023/04/20 18:27:54;;;;;;;3.77;2.60;;;10.80;99.90;;;;;;4983661;28;20202;-73
2023/04/20 18:30:21;;;;;;;5.30;2.50;;;10.80;99.90;;;;;;4981936;28;20252;-73
2023/04/20 18:32:48;;;;;;;3.23;2.23;;;10.90;99.90;;;;;;4958757;28;20228;-73
2023/04/20 18:35:15;;;;;;;2.67;2.10;;;10.80;99.90;;;;;;4955558;28;20204;-71
2023/04/20 18:37:42;;;;;;;2.90;1.87;;;10.60;99.90;;;;;;4972430;28;20323;-69
2023/04/20 18:40:11;;;;;;;4.30;2.13;;;10.40;99.90;;;;;;4986436;28;20199;-72
2023/04/20 18:42:38;;;;;;;4.27;2.07;;;10.30;99.90;;;;;;4996753;28;20226;-71
2023/04/20 18:45:06;;;;;;;3.97;2.17;;;10.20;99.90;;;;;;4994619;28;20736;-71
2023/04/20 18:47:33;;;;;;;3.77;2.10;;;10.10;99.90;;;;;;4994451;28;20206;-72
2023/04/20 18:50:00;;;;;;;3.97;2.40;;;10.10;99.90;;;;;;4987041;28;20242;-71
2023/04/20 18:52:27;;;;;;;4.43;2.13;;;10.30;99.90;;;;;;4967834;28;20250;-71
2023/04/20 18:54:54;;;;;;;2.70;1.80;;;10.20;99.90;;;;;;4959977;28;20294;-74
2023/04/20 18:57:25;;;;;;;2.77;2.03;;;10.10;99.90;;;;;;4956886;28;20664;-70
2023/04/20 18:59:52;;;;;;;3.80;2.20;;;9.90;99.90;;;;;;4964214;28;20260;-86
2023/04/20 19:02:19;;;;;;;3.03;2.13;;;9.80;99.90;;;;;;4965268;28;20712;-81
2023/04/20 19:04:46;;;;;;;3.93;2.53;;;9.70;99.90;;;;;;4966082;28;20203;-86
2023/04/20 19:07:12;;;;;;;2.90;1.93;;;9.70;99.90;;;;;;4971924;28;20679;-87
2023/04/20 19:09:39;;;;;;;3.53;2.17;;;9.60;99.90;;;;;;4975222;28;20230;-87
2023/04/20 19:12:06;;;;;;;3.60;2.20;;;9.50;99.90;;;;;;4966947;28;20228;-86
2023/04/20 19:14:35;;;;;;;3.87;1.63;;;9.50;99.90;;;;;;4959520;28;20748;-84
2023/04/20 19:17:04;;;;;;;3.40;2.10;;;9.40;99.90;;;;;;4966036;28;20700;-85
2023/04/20 19:19:31;;;;;;;3.77;2.00;;;9.40;99.90;;;;;;4972894;28;20211;-85
2023/04/20 19:21:59;;;;;;;3.23;2.40;;;9.40;99.90;;;;;;4962178;28;20346;-78
2023/04/20 19:24:26;;;;;;;3.90;2.50;;;9.40;99.90;;;;;;4972656;28;20270;-86
2023/04/20 19:26:53;;;;;;;3.50;2.20;;;9.30;99.90;;;;;;4963495;28;20261;-85
2023/04/20 19:29:20;;;;;;;3.37;2.40;;;9.20;99.90;;;;;;4966510;28;20779;-76
2023/04/20 19:31:49;;;;;;;4.27;2.90;;;9.30;99.90;;;;;;4961974;28;21337;-80
2023/04/20 19:34:16;;;;;;;6.83;3.10;;;9.30;99.90;;;;;;4964895;28;20298;-81
2023/04/20 19:36:43;;;;;;;6.13;4.10;;;9.20;99.90;;;;;;4975070;28;20270;-84
2023/04/20 19:39:10;;;;;;;5.37;3.50;;;9.30;99.90;;;;;;4973736;28;20287;-85
2023/04/20 19:41:38;;;;;;;5.13;3.00;;;9.30;99.90;;;;;;4964925;28;20206;-85
2023/04/20 19:44:05;;;;;;;4.50;2.40;;;9.30;99.90;;;;;;4968019;28;20242;-85
2023/04/20 19:46:32;;;;;;;7.10;2.47;;;9.20;99.90;;;;;;4963207;28;20267;-82
2023/04/20 19:49:01;;;;;;;5.43;3.30;;;9.10;99.90;;;;;;4972224;28;20215;-78
2023/04/20 19:51:28;;;;;;;5.73;3.30;;;9.20;99.90;;;;;;4969526;28;20211;-79
2023/04/20 19:53:58;;;;;;;3.30;2.27;;;9.20;99.90;;;;;;4966495;28;20319;-80
2023/04/20 19:56:25;;;;;;;3.97;2.60;;;9.20;99.90;;;;;;4969599;28;20235;-73
2023/04/20 19:58:52;;;;;;;3.80;2.50;;;9.20;99.90;;;;;;4966880;28;20231;-76
2023/04/20 20:01:20;;;;;;;5.50;2.47;;;9.20;99.90;;;;;;4967198;28;20287;-80
2023/04/20 20:03:47;;;;;;;4.07;2.43;;;9.40;99.90;;;;;;4962630;28;20263;-77
2023/04/20 20:06:15;;;;;;;5.37;3.10;;;9.40;99.90;;;;;;4972014;28;20235;-71
2023/04/20 20:08:42;;;;;;;5.27;2.80;;;9.30;99.90;;;;;;4961062;28;20219;-72
2023/04/20 20:11:09;;;;;;;4.27;2.63;;;9.20;99.90;;;;;;4962674;28;20203;-72
2023/04/20 20:13:36;;;;;;;5.07;3.20;;;9.10;99.90;;;;;;4962642;28;20311;-77
2023/04/20 20:16:03;;;;;;;4.37;2.93;;;9.00;99.90;;;;;;4973342;28;20754;-74
2023/04/20 20:18:30;;;;;;;5.47;2.67;;;8.90;99.90;;;;;;4960792;28;20235;-73
2023/04/20 20:20:57;;;;;;;5.10;3.07;;;8.90;99.90;;;;;;4972432;28;20242;-73
2023/04/20 20:23:26;;;;;;;5.17;2.73;;;8.80;99.90;;;;;;4958950;28;20314;-72
2023/04/20 20:25:52;;;;;;;5.77;2.60;;;8.90;99.90;;;;;;4971779;28;20286;-77
2023/04/20 20:28:20;;;;;;;5.97;3.40;;;8.80;99.90;;;;;;4965885;28;20299;-73
2023/04/20 20:30:47;;;;;;;3.77;2.43;;;8.70;99.90;;;;;;4970327;28;20676;-72
2023/04/20 20:33:14;;;;;;;7.53;2.60;;;8.60;99.90;;;;;;4965952;28;20657;-71
2023/04/20 20:35:41;;;;;;;3.70;2.23;;;8.80;99.90;;;;;;4968386;28;20208;-80
2023/04/20 20:38:09;;;;;;;5.63;3.20;;;9.00;99.90;;;;;;4966489;28;20285;-77
2023/04/20 20:40:38;;;;;;;5.23;2.90;;;8.80;99.90;;;;;;4967930;28;20214;-71
2023/04/20 20:43:05;;;;;;;3.57;2.70;;;8.60;99.90;;;;;;4962410;28;20223;-75
2023/04/20 20:45:32;;;;;;;6.90;3.50;;;8.50;99.90;;;;;;4963817;28;20299;-77
2023/04/20 20:47:59;;;;;;;5.50;2.80;;;8.20;99.90;;;;;;4960427;28;20334;-73
2023/04/20 20:50:26;;;;;;;5.50;3.47;;;8.00;99.90;;;;;;4961936;28;20279;-78
2023/04/20 20:52:53;;;;;;;7.43;3.50;;;8.00;99.90;;;;;;4958999;28;20286;-72
2023/04/20 20:55:20;;;;;;;4.03;2.80;;;8.00;99.90;;;;;;4963648;28;20247;-74
2023/04/20 20:57:48;;;;;;;4.37;2.83;;;8.00;99.90;;;;;;4971772;28;20319;-73
2023/04/20 21:00:15;;;;;;;4.93;3.13;;;8.00;99.90;;;;;;4969688;28;20294;-72
2023/04/20 21:02:42;;;;;;;6.50;4.27;;;7.90;99.90;;;;;;4971399;28;20314;-71
2023/04/20 21:05:09;;;;;;;5.47;3.30;;;7.90;99.90;;;;;;4955280;28;20299;-72
2023/04/20 21:07:36;;;;;;;5.97;3.40;;;8.00;99.90;;;;;;4968216;28;20215;-71
2023/04/20 21:10:03;;;;;;;5.03;3.37;;;7.80;99.90;;;;;;4964705;28;20728;-72
2023/04/20 21:12:30;;;;;;;8.37;2.97;;;7.60;99.90;;;;;;4967887;28;20265;-71
2023/04/20 21:15:02;;;;;;;6.10;3.40;;;7.50;99.90;;;;;;4958040;28;20298;-75
2023/04/20 21:17:28;;;;;;;5.50;3.20;;;7.60;99.90;;;;;;4967359;28;20298;-72
2023/04/20 21:19:55;;;;;;;5.43;3.10;;;7.50;99.90;;;;;;4956582;28;20239;-72
